sensor_id;sensor_type;location;lat;lon;timestamp;temperature;humidity
65707;SHT31;52423;43.512;5.220;2023-04-25T00:00:35;15.63;52.82
65707;SHT31;52423;43.512;5.220;2023-04-25T00:03:00;15.66;52.70
65707;SHT31;52423;43.512;5.220;2023-04-25T00:05:26;15.62;52.33
65707;SHT31;52423;43.512;5.220;2023-04-25T00:07:52;15.67;52.60
65707;SHT31;52423;43.512;5.220;2023-04-25T00:10:19;15.69;52.98
65707;SHT31;52423;43.512;5.220;2023-04-25T00:12:44;15.72;52.65
65707;SHT31;52423;43.512;5.220;2023-04-25T00:15:11;15.66;52.81
65707;SHT31;52423;43.512;5.220;2023-04-25T00:17:37;15.70;52.80
65707;SHT31;52423;43.512;5.220;2023-04-25T00:20:04;15.75;52.89
65707;SHT31;52423;43.512;5.220;2023-04-25T00:22:34;15.72;53.18
65707;SHT31;52423;43.512;5.220;2023-04-25T00:25:02;15.82;53.09
65707;SHT31;52423;43.512;5.220;2023-04-25T00:27:28;15.79;53.56
65707;SHT31;52423;43.512;5.220;2023-04-25T00:29:54;15.78;53.68
65707;SHT31;52423;43.512;5.220;2023-04-25T00:32:19;15.70;53.76
65707;SHT31;52423;43.512;5.220;2023-04-25T00:34:44;15.78;54.23
65707;SHT31;52423;43.512;5.220;2023-04-25T00:37:10;15.79;53.98
65707;SHT31;52423;43.512;5.220;2023-04-25T00:39:35;15.82;54.23
65707;SHT31;52423;43.512;5.220;2023-04-25T00:42:01;15.76;53.99
65707;SHT31;52423;43.512;5.220;2023-04-25T00:44:29;15.87;53.48
65707;SHT31;52423;43.512;5.220;2023-04-25T00:46:55;15.87;53.57
65707;SHT31;52423;43.512;5.220;2023-04-25T00:49:20;15.83;53.66
65707;SHT31;52423;43.512;5.220;2023-04-25T00:51:46;15.82;54.27
65707;SHT31;52423;43.512;5.220;2023-04-25T00:54:12;15.83;54.01
65707;SHT31;52423;43.512;5.220;2023-04-25T00:56:38;15.69;54.82
65707;SHT31;52423;43.512;5.220;2023-04-25T00:59:03;15.72;54.39
65707;SHT31;52423;43.512;5.220;2023-04-25T01:01:29;15.65;54.95
65707;SHT31;52423;43.512;5.220;2023-04-25T01:03:57;15.70;54.87
65707;SHT31;52423;43.512;5.220;2023-04-25T01:06:23;15.78;54.80
65707;SHT31;52423;43.512;5.220;2023-04-25T01:08:49;15.62;55.17
65707;SHT31;52423;43.512;5.220;2023-04-25T01:11:14;15.65;55.44
65707;SHT31;52423;43.512;5.220;2023-04-25T01:13:40;15.70;55.62
65707;SHT31;52423;43.512;5.220;2023-04-25T01:16:05;15.76;55.45
65707;SHT31;52423;43.512;5.220;2023-04-25T01:18:31;15.66;56.04
65707;SHT31;52423;43.512;5.220;2023-04-25T01:21:03;15.55;56.10
65707;SHT31;52423;43.512;5.220;2023-04-25T01:23:32;15.55;56.24
65707;SHT31;52423;43.512;5.220;2023-04-25T01:25:58;15.56;56.19
65707;SHT31;52423;43.512;5.220;2023-04-25T01:28:24;15.56;56.45
65707;SHT31;52423;43.512;5.220;2023-04-25T01:30:50;15.52;56.66
65707;SHT31;52423;43.512;5.220;2023-04-25T01:33:15;15.48;56.75
65707;SHT31;52423;43.512;5.220;2023-04-25T01:35:41;15.56;57.08
65707;SHT31;52423;43.512;5.220;2023-04-25T01:38:07;15.58;58.42
65707;SHT31;52423;43.512;5.220;2023-04-25T01:40:33;15.44;59.72
65707;SHT31;52423;43.512;5.220;2023-04-25T01:42:59;15.32;60.32
65707;SHT31;52423;43.512;5.220;2023-04-25T01:45:25;15.30;58.48
65707;SHT31;52423;43.512;5.220;2023-04-25T01:47:50;15.27;59.41
65707;SHT31;52423;43.512;5.220;2023-04-25T01:50:19;15.24;58.50
65707;SHT31;52423;43.512;5.220;2023-04-25T01:52:45;15.28;59.47
65707;SHT31;52423;43.512;5.220;2023-04-25T01:55:11;15.21;59.13
65707;SHT31;52423;43.512;5.220;2023-04-25T01:57:36;15.22;56.01
65707;SHT31;52423;43.512;5.220;2023-04-25T02:00:04;15.25;57.65
65707;SHT31;52423;43.512;5.220;2023-04-25T02:02:31;15.32;57.42
65707;SHT31;52423;43.512;5.220;2023-04-25T02:04:57;15.35;57.97
65707;SHT31;52423;43.512;5.220;2023-04-25T02:07:22;15.42;57.30
65707;SHT31;52423;43.512;5.220;2023-04-25T02:09:47;15.41;57.13
65707;SHT31;52423;43.512;5.220;2023-04-25T02:12:13;15.27;56.94
65707;SHT31;52423;43.512;5.220;2023-04-25T02:14:38;15.28;57.06
65707;SHT31;52423;43.512;5.220;2023-04-25T02:17:04;15.20;56.71
65707;SHT31;52423;43.512;5.220;2023-04-25T02:19:30;15.34;57.00
65707;SHT31;52423;43.512;5.220;2023-04-25T02:21:56;15.41;57.17
65707;SHT31;52423;43.512;5.220;2023-04-25T02:24:22;15.30;57.12
65707;SHT31;52423;43.512;5.220;2023-04-25T02:26:47;15.24;57.22
65707;SHT31;52423;43.512;5.220;2023-04-25T02:29:14;15.17;57.18
65707;SHT31;52423;43.512;5.220;2023-04-25T02:31:40;15.17;56.24
65707;SHT31;52423;43.512;5.220;2023-04-25T02:34:05;15.18;57.58
65707;SHT31;52423;43.512;5.220;2023-04-25T02:36:31;15.20;57.05
65707;SHT31;52423;43.512;5.220;2023-04-25T02:38:59;15.17;56.81
65707;SHT31;52423;43.512;5.220;2023-04-25T02:41:25;15.17;57.19
65707;SHT31;52423;43.512;5.220;2023-04-25T02:43:51;15.20;56.86
65707;SHT31;52423;43.512;5.220;2023-04-25T02:46:16;15.20;57.11
65707;SHT31;52423;43.512;5.220;2023-04-25T02:48:41;15.14;57.33
65707;SHT31;52423;43.512;5.220;2023-04-25T02:51:07;15.10;57.58
65707;SHT31;52423;43.512;5.220;2023-04-25T02:53:32;15.00;57.24
65707;SHT31;52423;43.512;5.220;2023-04-25T02:55:57;15.05;57.22
65707;SHT31;52423;43.512;5.220;2023-04-25T02:58:24;15.01;57.28
65707;SHT31;52423;43.512;5.220;2023-04-25T03:00:50;15.03;57.44
65707;SHT31;52423;43.512;5.220;2023-04-25T03:03:15;15.00;57.49
65707;SHT31;52423;43.512;5.220;2023-04-25T03:05:43;14.90;57.62
65707;SHT31;52423;43.512;5.220;2023-04-25T03:08:09;14.95;57.89
65707;SHT31;52423;43.512;5.220;2023-04-25T03:10:34;14.84;57.92
65707;SHT31;52423;43.512;5.220;2023-04-25T03:13:00;14.88;58.06
65707;SHT31;52423;43.512;5.220;2023-04-25T03:15:25;14.80;58.04
65707;SHT31;52423;43.512;5.220;2023-04-25T03:17:51;14.80;57.84
65707;SHT31;52423;43.512;5.220;2023-04-25T03:20:16;14.77;58.02
65707;SHT31;52423;43.512;5.220;2023-04-25T03:22:42;14.80;57.87
65707;SHT31;52423;43.512;5.220;2023-04-25T03:25:07;14.72;58.20
65707;SHT31;52423;43.512;5.220;2023-04-25T03:27:33;14.77;58.34
65707;SHT31;52423;43.512;5.220;2023-04-25T03:29:58;14.73;58.24
65707;SHT31;52423;43.512;5.220;2023-04-25T03:32:24;14.67;58.54
65707;SHT31;52423;43.512;5.220;2023-04-25T03:34:49;14.64;58.43
65707;SHT31;52423;43.512;5.220;2023-04-25T03:37:14;14.64;58.44
65707;SHT31;52423;43.512;5.220;2023-04-25T03:39:40;14.63;58.67
65707;SHT31;52423;43.512;5.220;2023-04-25T03:42:05;14.66;58.28
65707;SHT31;52423;43.512;5.220;2023-04-25T03:44:30;14.69;58.49
65707;SHT31;52423;43.512;5.220;2023-04-25T03:46:56;14.72;58.35
65707;SHT31;52423;43.512;5.220;2023-04-25T03:49:21;14.79;58.46
65707;SHT31;52423;43.512;5.220;2023-04-25T03:51:46;14.72;58.43
65707;SHT31;52423;43.512;5.220;2023-04-25T03:54:12;14.73;58.68
65707;SHT31;52423;43.512;5.220;2023-04-25T03:56:37;14.70;58.53
65707;SHT31;52423;43.512;5.220;2023-04-25T03:59:02;14.74;58.49
65707;SHT31;52423;43.512;5.220;2023-04-25T04:01:28;14.66;58.96
65707;SHT31;52423;43.512;5.220;2023-04-25T04:03:53;14.72;59.10
65707;SHT31;52423;43.512;5.220;2023-04-25T04:06:19;14.72;58.87
65707;SHT31;52423;43.512;5.220;2023-04-25T04:08:46;14.63;59.20
65707;SHT31;52423;43.512;5.220;2023-04-25T04:11:11;14.66;59.32
65707;SHT31;52423;43.512;5.220;2023-04-25T04:13:36;14.62;59.21
65707;SHT31;52423;43.512;5.220;2023-04-25T04:16:02;14.59;59.63
65707;SHT31;52423;43.512;5.220;2023-04-25T04:18:29;14.66;59.66
65707;SHT31;52423;43.512;5.220;2023-04-25T04:20:54;14.64;59.46
65707;SHT31;52423;43.512;5.220;2023-04-25T04:23:20;14.64;59.48
65707;SHT31;52423;43.512;5.220;2023-04-25T04:25:45;14.62;59.39
65707;SHT31;52423;43.512;5.220;2023-04-25T04:28:12;14.69;59.42
65707;SHT31;52423;43.512;5.220;2023-04-25T04:30:38;14.60;59.43
65707;SHT31;52423;43.512;5.220;2023-04-25T04:33:04;14.63;59.68
65707;SHT31;52423;43.512;5.220;2023-04-25T04:35:29;14.63;59.83
65707;SHT31;52423;43.512;5.220;2023-04-25T04:37:55;14.52;59.57
65707;SHT31;52423;43.512;5.220;2023-04-25T04:40:21;14.55;59.60
65707;SHT31;52423;43.512;5.220;2023-04-25T04:42:47;14.53;59.77
65707;SHT31;52423;43.512;5.220;2023-04-25T04:45:13;14.47;59.91
65707;SHT31;52423;43.512;5.220;2023-04-25T04:47:39;14.55;60.16
65707;SHT31;52423;43.512;5.220;2023-04-25T04:50:08;14.47;60.18
65707;SHT31;52423;43.512;5.220;2023-04-25T04:52:37;14.49;60.25
65707;SHT31;52423;43.512;5.220;2023-04-25T04:55:04;14.56;60.38
65707;SHT31;52423;43.512;5.220;2023-04-25T04:57:30;14.50;60.06
65707;SHT31;52423;43.512;5.220;2023-04-25T04:59:56;14.46;60.06
65707;SHT31;52423;43.512;5.220;2023-04-25T05:02:22;14.47;60.70
65707;SHT31;52423;43.512;5.220;2023-04-25T05:04:47;14.39;60.48
65707;SHT31;52423;43.512;5.220;2023-04-25T05:07:13;14.44;60.27
65707;SHT31;52423;43.512;5.220;2023-04-25T05:09:39;14.49;60.44
65707;SHT31;52423;43.512;5.220;2023-04-25T05:12:05;14.59;60.49
65707;SHT31;52423;43.512;5.220;2023-04-25T05:14:30;14.57;60.26
65707;SHT31;52423;43.512;5.220;2023-04-25T05:16:56;14.50;60.81
65707;SHT31;52423;43.512;5.220;2023-04-25T05:19:21;14.47;60.48
65707;SHT31;52423;43.512;5.220;2023-04-25T05:21:47;14.49;60.71
65707;SHT31;52423;43.512;5.220;2023-04-25T05:24:12;14.55;60.65
65707;SHT31;52423;43.512;5.220;2023-04-25T05:26:38;14.53;60.38
65707;SHT31;52423;43.512;5.220;2023-04-25T05:29:03;14.52;60.33
65707;SHT31;52423;43.512;5.220;2023-04-25T05:31:28;14.40;60.59
65707;SHT31;52423;43.512;5.220;2023-04-25T05:33:54;14.33;60.63
65707;SHT31;52423;43.512;5.220;2023-04-25T05:36:19;14.39;60.76
65707;SHT31;52423;43.512;5.220;2023-04-25T05:38:45;14.37;60.65
65707;SHT31;52423;43.512;5.220;2023-04-25T05:41:10;14.40;61.00
65707;SHT31;52423;43.512;5.220;2023-04-25T05:43:36;14.37;60.43
65707;SHT31;52423;43.512;5.220;2023-04-25T05:46:01;14.56;60.39
65707;SHT31;52423;43.512;5.220;2023-04-25T05:48:27;14.55;60.44
65707;SHT31;52423;43.512;5.220;2023-04-25T05:50:52;14.55;60.48
65707;SHT31;52423;43.512;5.220;2023-04-25T05:53:19;14.57;60.74
65707;SHT31;52423;43.512;5.220;2023-04-25T05:55:44;14.64;60.87
65707;SHT31;52423;43.512;5.220;2023-04-25T05:58:09;14.73;59.93
65707;SHT31;52423;43.512;5.220;2023-04-25T06:00:35;14.77;60.23
65707;SHT31;52423;43.512;5.220;2023-04-25T06:03:00;14.79;59.65
65707;SHT31;52423;43.512;5.220;2023-04-25T06:05:26;14.85;59.20
65707;SHT31;52423;43.512;5.220;2023-04-25T06:07:51;14.91;58.94
65707;SHT31;52423;43.512;5.220;2023-04-25T06:10:17;14.97;59.16
65707;SHT31;52423;43.512;5.220;2023-04-25T06:12:42;15.08;58.90
65707;SHT31;52423;43.512;5.220;2023-04-25T06:15:08;15.05;58.97
65707;SHT31;52423;43.512;5.220;2023-04-25T06:17:33;15.05;58.97
65707;SHT31;52423;43.512;5.220;2023-04-25T06:19:59;15.08;57.65
65707;SHT31;52423;43.512;5.220;2023-04-25T06:22:24;15.10;57.52
65707;SHT31;52423;43.512;5.220;2023-04-25T06:24:49;15.17;58.11
65707;SHT31;52423;43.512;5.220;2023-04-25T06:27:15;15.12;58.07
65707;SHT31;52423;43.512;5.220;2023-04-25T06:29:40;15.17;56.99
65707;SHT31;52423;43.512;5.220;2023-04-25T06:32:05;15.18;57.15
65707;SHT31;52423;43.512;5.220;2023-04-25T06:34:31;15.08;56.92
65707;SHT31;52423;43.512;5.220;2023-04-25T06:36:56;15.05;57.49
65707;SHT31;52423;43.512;5.220;2023-04-25T06:39:22;15.11;57.37
65707;SHT31;52423;43.512;5.220;2023-04-25T06:41:48;15.17;58.23
65707;SHT31;52423;43.512;5.220;2023-04-25T06:44:14;15.11;58.15
65707;SHT31;52423;43.512;5.220;2023-04-25T06:46:40;15.22;58.97
65707;SHT31;52423;43.512;5.220;2023-04-25T06:49:06;15.15;58.08
65707;SHT31;52423;43.512;5.220;2023-04-25T06:51:31;15.27;58.57
65707;SHT31;52423;43.512;5.220;2023-04-25T06:53:57;15.34;58.93
65707;SHT31;52423;43.512;5.220;2023-04-25T06:56:22;15.41;58.29
65707;SHT31;52423;43.512;5.220;2023-04-25T06:58:49;15.48;58.19
65707;SHT31;52423;43.512;5.220;2023-04-25T07:01:14;15.62;56.66
65707;SHT31;52423;43.512;5.220;2023-04-25T07:03:39;15.58;57.74
65707;SHT31;52423;43.512;5.220;2023-04-25T07:06:05;15.66;56.40
65707;SHT31;52423;43.512;5.220;2023-04-25T07:08:31;15.83;57.15
65707;SHT31;52423;43.512;5.220;2023-04-25T07:10:56;15.93;56.16
65707;SHT31;52423;43.512;5.220;2023-04-25T07:13:21;16.02;54.77
65707;SHT31;52423;43.512;5.220;2023-04-25T07:15:47;16.10;54.76
65707;SHT31;52423;43.512;5.220;2023-04-25T07:18:13;16.20;53.36
65707;SHT31;52423;43.512;5.220;2023-04-25T07:20:38;16.27;54.43
65707;SHT31;52423;43.512;5.220;2023-04-25T07:23:04;16.28;53.81
65707;SHT31;52423;43.512;5.220;2023-04-25T07:25:29;16.38;54.99
65707;SHT31;52423;43.512;5.220;2023-04-25T07:27:55;16.41;53.82
65707;SHT31;52423;43.512;5.220;2023-04-25T07:30:21;16.34;54.64
65707;SHT31;52423;43.512;5.220;2023-04-25T07:32:47;16.37;54.59
65707;SHT31;52423;43.512;5.220;2023-04-25T07:35:12;16.41;52.79
65707;SHT31;52423;43.512;5.220;2023-04-25T07:37:38;16.34;51.88
65707;SHT31;52423;43.512;5.220;2023-04-25T07:40:04;16.48;53.08
65707;SHT31;52423;43.512;5.220;2023-04-25T07:42:30;16.62;51.96
65707;SHT31;52423;43.512;5.220;2023-04-25T07:44:55;16.65;51.36
65707;SHT31;52423;43.512;5.220;2023-04-25T07:47:21;16.65;51.08
65707;SHT31;52423;43.512;5.220;2023-04-25T07:49:46;16.81;52.06
65707;SHT31;52423;43.512;5.220;2023-04-25T07:52:12;16.71;50.38
65707;SHT31;52423;43.512;5.220;2023-04-25T07:54:37;16.79;50.86
65707;SHT31;52423;43.512;5.220;2023-04-25T07:57:03;16.99;49.92
65707;SHT31;52423;43.512;5.220;2023-04-25T07:59:28;16.79;49.76
65707;SHT31;52423;43.512;5.220;2023-04-25T08:01:53;16.95;48.87
65707;SHT31;52423;43.512;5.220;2023-04-25T08:04:19;17.09;48.20
65707;SHT31;52423;43.512;5.220;2023-04-25T08:06:44;17.25;48.01
65707;SHT31;52423;43.512;5.220;2023-04-25T08:09:10;17.30;47.24
65707;SHT31;52423;43.512;5.220;2023-04-25T08:11:36;17.75;47.39
65707;SHT31;52423;43.512;5.220;2023-04-25T08:14:02;18.05;47.62
65707;SHT31;52423;43.512;5.220;2023-04-25T08:16:27;18.31;48.03
65707;SHT31;52423;43.512;5.220;2023-04-25T08:18:53;17.95;46.07
65707;SHT31;52423;43.512;5.220;2023-04-25T08:21:19;17.94;46.65
65707;SHT31;52423;43.512;5.220;2023-04-25T08:23:44;18.15;45.53
65707;SHT31;52423;43.512;5.220;2023-04-25T08:26:10;18.00;45.64
65707;SHT31;52423;43.512;5.220;2023-04-25T08:28:35;18.06;45.22
65707;SHT31;52423;43.512;5.220;2023-04-25T08:31:00;18.01;46.79
65707;SHT31;52423;43.512;5.220;2023-04-25T08:33:26;17.91;45.35
65707;SHT31;52423;43.512;5.220;2023-04-25T08:35:51;17.87;48.07
65707;SHT31;52423;43.512;5.220;2023-04-25T08:38:17;17.83;46.13
65707;SHT31;52423;43.512;5.220;2023-04-25T08:40:43;17.81;47.45
65707;SHT31;52423;43.512;5.220;2023-04-25T08:43:13;17.85;47.91
65707;SHT31;52423;43.512;5.220;2023-04-25T08:45:40;18.01;48.72
65707;SHT31;52423;43.512;5.220;2023-04-25T08:48:13;18.06;46.33
65707;SHT31;52423;43.512;5.220;2023-04-25T08:50:51;18.02;46.16
65707;SHT31;52423;43.512;5.220;2023-04-25T08:53:22;18.12;47.41
65707;SHT31;52423;43.512;5.220;2023-04-25T08:55:48;18.22;45.69
65707;SHT31;52423;43.512;5.220;2023-04-25T08:58:15;18.41;45.80
65707;SHT31;52423;43.512;5.220;2023-04-25T09:00:40;18.48;44.96
65707;SHT31;52423;43.512;5.220;2023-04-25T09:03:06;18.83;44.58
65707;SHT31;52423;43.512;5.220;2023-04-25T09:05:32;18.55;43.49
65707;SHT31;52423;43.512;5.220;2023-04-25T09:07:58;18.62;44.34
65707;SHT31;52423;43.512;5.220;2023-04-25T09:10:23;18.84;44.79
65707;SHT31;52423;43.512;5.220;2023-04-25T09:13:11;18.94;42.36
65707;SHT31;52423;43.512;5.220;2023-04-25T09:15:55;18.97;42.39
65707;SHT31;52423;43.512;5.220;2023-04-25T09:18:30;18.97;43.04
65707;SHT31;52423;43.512;5.220;2023-04-25T09:20:58;19.04;43.10
65707;SHT31;52423;43.512;5.220;2023-04-25T09:23:29;19.02;43.31
65707;SHT31;52423;43.512;5.220;2023-04-25T09:25:55;18.96;42.50
65707;SHT31;52423;43.512;5.220;2023-04-25T09:28:25;18.99;42.48
65707;SHT31;52423;43.512;5.220;2023-04-25T09:30:57;19.07;42.34
65707;SHT31;52423;43.512;5.220;2023-04-25T09:33:31;19.18;41.70
65707;SHT31;52423;43.512;5.220;2023-04-25T09:36:02;19.28;43.40
65707;SHT31;52423;43.512;5.220;2023-04-25T09:38:30;19.30;41.75
65707;SHT31;52423;43.512;5.220;2023-04-25T09:40:55;19.17;42.66
65707;SHT31;52423;43.512;5.220;2023-04-25T09:43:23;19.30;42.88
65707;SHT31;52423;43.512;5.220;2023-04-25T09:45:49;19.52;41.32
65707;SHT31;52423;43.512;5.220;2023-04-25T09:48:23;19.81;42.68
65707;SHT31;52423;43.512;5.220;2023-04-25T09:51:12;19.71;42.49
65707;SHT31;52423;43.512;5.220;2023-04-25T09:53:46;19.86;42.49
65707;SHT31;52423;43.512;5.220;2023-04-25T09:56:12;20.17;39.97
65707;SHT31;52423;43.512;5.220;2023-04-25T09:58:39;20.32;40.55
65707;SHT31;52423;43.512;5.220;2023-04-25T10:01:07;20.29;40.91
65707;SHT31;52423;43.512;5.220;2023-04-25T10:03:35;20.44;40.45
65707;SHT31;52423;43.512;5.220;2023-04-25T10:06:04;20.53;38.86
65707;SHT31;52423;43.512;5.220;2023-04-25T10:08:36;20.22;39.60
65707;SHT31;52423;43.512;5.220;2023-04-25T10:11:05;20.17;39.25
65707;SHT31;52423;43.512;5.220;2023-04-25T10:13:31;19.97;40.34
65707;SHT31;52423;43.512;5.220;2023-04-25T10:16:02;20.08;39.95
65707;SHT31;52423;43.512;5.220;2023-04-25T10:18:28;19.99;41.61
65707;SHT31;52423;43.512;5.220;2023-04-25T10:20:57;20.29;40.72
65707;SHT31;52423;43.512;5.220;2023-04-25T10:23:23;20.36;40.39
65707;SHT31;52423;43.512;5.220;2023-04-25T10:25:50;20.39;40.27
65707;SHT31;52423;43.512;5.220;2023-04-25T10:28:16;20.24;39.92
65707;SHT31;52423;43.512;5.220;2023-04-25T10:31:04;20.41;40.31
65707;SHT31;52423;43.512;5.220;2023-04-25T10:36:23;20.50;41.34
65707;SHT31;52423;43.512;5.220;2023-04-25T10:38:51;20.83;40.98
65707;SHT31;52423;43.512;5.220;2023-04-25T10:41:20;20.95;38.91
65707;SHT31;52423;43.512;5.220;2023-04-25T10:43:47;20.61;40.27
65707;SHT31;52423;43.512;5.220;2023-04-25T10:46:24;20.44;39.44
65707;SHT31;52423;43.512;5.220;2023-04-25T10:48:53;20.39;40.87
65707;SHT31;52423;43.512;5.220;2023-04-25T10:51:25;20.71;39.72
65707;SHT31;52423;43.512;5.220;2023-04-25T10:56:21;20.84;39.44
65707;SHT31;52423;43.512;5.220;2023-04-25T10:58:47;21.02;38.03
65707;SHT31;52423;43.512;5.220;2023-04-25T11:01:14;20.84;37.91
65707;SHT31;52423;43.512;5.220;2023-04-25T11:03:43;20.81;38.90
65707;SHT31;52423;43.512;5.220;2023-04-25T11:06:27;21.18;38.08
65707;SHT31;52423;43.512;5.220;2023-04-25T11:08:54;21.59;38.69
65707;SHT31;52423;43.512;5.220;2023-04-25T11:11:20;21.46;38.02
65707;SHT31;52423;43.512;5.220;2023-04-25T11:13:49;20.99;37.50
65707;SHT31;52423;43.512;5.220;2023-04-25T11:16:16;21.25;36.80
65707;SHT31;52423;43.512;5.220;2023-04-25T11:18:42;21.36;37.33
65707;SHT31;52423;43.512;5.220;2023-04-25T11:21:08;21.39;37.69
65707;SHT31;52423;43.512;5.220;2023-04-25T11:23:34;21.70;36.75
65707;SHT31;52423;43.512;5.220;2023-04-25T11:25:59;21.56;36.68
65707;SHT31;52423;43.512;5.220;2023-04-25T11:28:26;21.53;37.71
65707;SHT31;52423;43.512;5.220;2023-04-25T11:30:52;21.46;37.73
65707;SHT31;52423;43.512;5.220;2023-04-25T11:33:22;21.60;36.90
65707;SHT31;52423;43.512;5.220;2023-04-25T11:35:47;21.41;35.75
65707;SHT31;52423;43.512;5.220;2023-04-25T11:38:13;21.50;35.96
65707;SHT31;52423;43.512;5.220;2023-04-25T11:40:40;21.26;37.44
65707;SHT31;52423;43.512;5.220;2023-04-25T11:43:05;21.25;37.75
65707;SHT31;52423;43.512;5.220;2023-04-25T11:45:31;21.49;37.93
65707;SHT31;52423;43.512;5.220;2023-04-25T11:47:56;21.59;36.27
65707;SHT31;52423;43.512;5.220;2023-04-25T11:50:22;21.59;36.17
65707;SHT31;52423;43.512;5.220;2023-04-25T11:52:48;21.53;36.55
65707;SHT31;52423;43.512;5.220;2023-04-25T11:55:18;21.56;36.40
65707;SHT31;52423;43.512;5.220;2023-04-25T11:57:46;21.08;37.18
65707;SHT31;52423;43.512;5.220;2023-04-25T12:00:14;21.21;37.61
65707;SHT31;52423;43.512;5.220;2023-04-25T12:02:43;21.21;37.47
65707;SHT31;52423;43.512;5.220;2023-04-25T12:05:09;21.29;38.04
65707;SHT31;52423;43.512;5.220;2023-04-25T12:07:35;20.87;36.93
65707;SHT31;52423;43.512;5.220;2023-04-25T12:10:10;21.06;37.47
65707;SHT31;52423;43.512;5.220;2023-04-25T12:12:36;21.33;36.97
65707;SHT31;52423;43.512;5.220;2023-04-25T12:15:09;21.53;36.89
65707;SHT31;52423;43.512;5.220;2023-04-25T12:17:35;21.59;35.92
65707;SHT31;52423;43.512;5.220;2023-04-25T12:20:09;21.55;35.71
65707;SHT31;52423;43.512;5.220;2023-04-25T12:22:34;21.84;36.25
65707;SHT31;52423;43.512;5.220;2023-04-25T12:25:01;21.49;36.19
65707;SHT31;52423;43.512;5.220;2023-04-25T12:27:30;21.64;37.02
65707;SHT31;52423;43.512;5.220;2023-04-25T12:29:57;21.53;37.02
65707;SHT31;52423;43.512;5.220;2023-04-25T12:32:23;21.46;36.09
65707;SHT31;52423;43.512;5.220;2023-04-25T12:34:48;21.43;36.73
65707;SHT31;52423;43.512;5.220;2023-04-25T12:37:14;22.15;37.02
65707;SHT31;52423;43.512;5.220;2023-04-25T12:39:39;22.33;36.31
65707;SHT31;52423;43.512;5.220;2023-04-25T12:42:05;22.48;35.37
65707;SHT31;52423;43.512;5.220;2023-04-25T12:44:33;22.69;35.40
65707;SHT31;52423;43.512;5.220;2023-04-25T12:46:58;22.42;35.04
65707;SHT31;52423;43.512;5.220;2023-04-25T12:49:24;22.61;34.95
65707;SHT31;52423;43.512;5.220;2023-04-25T12:51:50;22.28;34.26
65707;SHT31;52423;43.512;5.220;2023-04-25T12:54:17;21.82;35.66
65707;SHT31;52423;43.512;5.220;2023-04-25T12:56:42;21.14;35.89
65707;SHT31;52423;43.512;5.220;2023-04-25T12:59:08;21.09;36.48
65707;SHT31;52423;43.512;5.220;2023-04-25T13:01:34;21.11;36.19
65707;SHT31;52423;43.512;5.220;2023-04-25T13:03:59;21.16;37.23
65707;SHT31;52423;43.512;5.220;2023-04-25T13:06:25;21.55;37.08
65707;SHT31;52423;43.512;5.220;2023-04-25T13:08:51;21.42;36.75
65707;SHT31;52423;43.512;5.220;2023-04-25T13:11:16;21.38;36.69
65707;SHT31;52423;43.512;5.220;2023-04-25T13:13:43;21.32;36.92
65707;SHT31;52423;43.512;5.220;2023-04-25T13:16:08;21.11;37.77
65707;SHT31;52423;43.512;5.220;2023-04-25T13:18:34;21.04;36.70
65707;SHT31;52423;43.512;5.220;2023-04-25T13:21:00;20.95;37.04
65707;SHT31;52423;43.512;5.220;2023-04-25T13:23:28;20.98;37.26
65707;SHT31;52423;43.512;5.220;2023-04-25T13:25:54;21.43;37.59
65707;SHT31;52423;43.512;5.220;2023-04-25T13:28:20;21.47;35.34
65707;SHT31;52423;43.512;5.220;2023-04-25T13:30:46;21.62;36.41
65707;SHT31;52423;43.512;5.220;2023-04-25T13:33:13;21.90;34.86
65707;SHT31;52423;43.512;5.220;2023-04-25T13:35:39;21.92;35.65
65707;SHT31;52423;43.512;5.220;2023-04-25T13:38:04;21.94;34.97
65707;SHT31;52423;43.512;5.220;2023-04-25T13:40:30;21.76;34.44
65707;SHT31;52423;43.512;5.220;2023-04-25T13:42:57;21.63;35.18
65707;SHT31;52423;43.512;5.220;2023-04-25T13:45:22;21.60;34.87
65707;SHT31;52423;43.512;5.220;2023-04-25T13:47:48;21.98;35.62
65707;SHT31;52423;43.512;5.220;2023-04-25T13:50:13;22.10;34.48
65707;SHT31;52423;43.512;5.220;2023-04-25T13:52:40;21.94;34.93
65707;SHT31;52423;43.512;5.220;2023-04-25T13:55:06;22.01;35.32
65707;SHT31;52423;43.512;5.220;2023-04-25T13:57:33;21.92;34.19
65707;SHT31;52423;43.512;5.220;2023-04-25T13:59:59;21.76;34.82
65707;SHT31;52423;43.512;5.220;2023-04-25T14:02:25;21.86;34.75
65707;SHT31;52423;43.512;5.220;2023-04-25T14:04:51;21.82;34.41
65707;SHT31;52423;43.512;5.220;2023-04-25T14:07:16;21.92;34.35
65707;SHT31;52423;43.512;5.220;2023-04-25T14:09:42;21.83;33.95
65707;SHT31;52423;43.512;5.220;2023-04-25T14:12:07;21.84;34.61
65707;SHT31;52423;43.512;5.220;2023-04-25T14:14:33;21.83;33.46
65707;SHT31;52423;43.512;5.220;2023-04-25T14:16:58;21.63;33.90
65707;SHT31;52423;43.512;5.220;2023-04-25T14:19:23;21.49;34.84
65707;SHT31;52423;43.512;5.220;2023-04-25T14:21:49;21.41;34.36
65707;SHT31;52423;43.512;5.220;2023-04-25T14:24:15;21.42;35.08
65707;SHT31;52423;43.512;5.220;2023-04-25T14:26:41;21.28;33.95
65707;SHT31;52423;43.512;5.220;2023-04-25T14:29:07;21.06;34.60
65707;SHT31;52423;43.512;5.220;2023-04-25T14:31:33;21.25;35.13
65707;SHT31;52423;43.512;5.220;2023-04-25T14:33:59;21.14;34.68
65707;SHT31;52423;43.512;5.220;2023-04-25T14:36:26;21.35;34.23
65707;SHT31;52423;43.512;5.220;2023-04-25T14:38:52;21.38;33.39
65707;SHT31;52423;43.512;5.220;2023-04-25T14:41:17;21.36;34.96
65707;SHT31;52423;43.512;5.220;2023-04-25T14:43:43;21.39;34.09
65707;SHT31;52423;43.512;5.220;2023-04-25T14:46:10;21.55;34.65
65707;SHT31;52423;43.512;5.220;2023-04-25T14:48:36;21.33;32.89
65707;SHT31;52423;43.512;5.220;2023-04-25T14:51:01;21.19;32.98
65707;SHT31;52423;43.512;5.220;2023-04-25T14:53:27;20.95;33.91
65707;SHT31;52423;43.512;5.220;2023-04-25T14:55:52;20.92;33.93
65707;SHT31;52423;43.512;5.220;2023-04-25T14:58:18;20.98;34.51
65707;SHT31;52423;43.512;5.220;2023-04-25T15:00:45;20.96;34.12
65707;SHT31;52423;43.512;5.220;2023-04-25T15:03:10;20.96;32.94
65707;SHT31;52423;43.512;5.220;2023-04-25T15:05:38;20.91;32.95
65707;SHT31;52423;43.512;5.220;2023-04-25T15:08:04;20.87;32.67
65707;SHT31;52423;43.512;5.220;2023-04-25T15:10:30;20.78;33.89
65707;SHT31;52423;43.512;5.220;2023-04-25T15:12:55;20.67;33.96
65707;SHT31;52423;43.512;5.220;2023-04-25T15:15:20;20.65;32.49
65707;SHT31;52423;43.512;5.220;2023-04-25T15:17:46;20.63;33.29
65707;SHT31;52423;43.512;5.220;2023-04-25T15:20:13;20.68;32.91
65707;SHT31;52423;43.512;5.220;2023-04-25T15:22:40;20.88;32.29
65707;SHT31;52423;43.512;5.220;2023-04-25T15:25:07;21.04;31.67
65707;SHT31;52423;43.512;5.220;2023-04-25T15:27:34;21.11;31.69
65707;SHT31;52423;43.512;5.220;2023-04-25T15:30:04;20.85;31.64